Time;durP1;ratioP1;P1;durP2;ratioP2;P2;SDS_P1;SDS_P2;PMS_P1;PMS_P2;Temp;Humidity;BMP_temperature;BMP_pressure;BME280_temperature;BME280_humidity;BME280_pressure;Samples;Min_cycle;Max_cycle;Signal;HPM_P1;HPM_P2
2022/04/14 00:02:03;;;;;;;;;;;12.30;99.90;;;;;;6115459;23;19921;-80
2022/04/14 00:04:35;;;;;;;;;;;12.30;99.90;;;;;;6138458;23;19925;-80
2022/04/14 00:07:03;;;;;;;;;;;12.20;99.90;;;;;;6115544;23;19932;-81
2022/04/14 00:09:31;;;;;;;;;;;12.20;99.90;;;;;;6148198;23;19931;-80
2022/04/14 00:11:58;;;;;;;;;;;12.20;99.90;;;;;;6135612;23;19922;-81
2022/04/14 00:14:26;;;;;;;;;;;12.20;99.90;;;;;;6110961;23;19921;-80
2022/04/14 00:16:54;;;;;;;;;;;12.10;99.90;;;;;;6110967;23;19967;-81
2022/04/14 00:19:22;;;;;;;;;;;12.10;99.90;;;;;;6121312;23;20269;-81
2022/04/14 00:21:50;;;;;;;;;;;12.00;99.90;;;;;;6123907;23;19925;-81
2022/04/14 00:24:17;;;;;;;;;;;12.20;99.90;;;;;;6112152;23;19928;-81
2022/04/14 00:26:45;;;;;;;;;;;12.00;99.90;;;;;;6135193;23;19929;-81
2022/04/14 00:29:14;;;;;;;;;;;12.00;99.90;;;;;;6135398;23;19928;-80
2022/04/14 00:31:42;;;;;;;;;;;12.00;99.90;;;;;;6110431;23;19928;-81
2022/04/14 00:34:11;;;;;;;;;;;11.80;99.90;;;;;;6144431;23;19921;-81
2022/04/14 00:36:38;;;;;;;;;;;11.90;99.90;;;;;;6119962;23;19921;-80
2022/04/14 00:39:09;;;;;;;;;;;11.80;99.90;;;;;;6119759;23;19928;-80
2022/04/14 00:41:39;;;;;;;;;;;11.80;99.90;;;;;;6120937;23;19921;-81
2022/04/14 00:44:08;;;;;;;;;;;11.70;99.90;;;;;;6111080;23;19948;-81
2022/04/14 00:46:36;;;;;;;;;;;11.70;99.90;;;;;;6111221;23;19927;-81
2022/04/14 00:49:04;;;;;;;;;;;11.60;99.90;;;;;;6122596;23;19921;-80
2022/04/14 00:51:34;;;;;;;;;;;11.60;99.90;;;;;;6140676;23;19924;-81
2022/04/14 00:54:02;;;;;;;;;;;11.50;99.90;;;;;;6120696;23;19921;-80
2022/04/14 00:56:29;;;;;;;;;;;11.50;99.90;;;;;;6122053;23;19932;-80
2022/04/14 00:58:57;;;;;;;;;;;11.30;99.90;;;;;;6122035;23;19939;-80
2022/04/14 01:01:26;;;;;;;;;;;11.30;99.90;;;;;;6137773;23;20092;-80
2022/04/14 01:03:56;;;;;;;;;;;11.20;99.90;;;;;;6136997;23;19925;-80
2022/04/14 01:06:24;;;;;;;;;;;11.10;99.90;;;;;;6114143;23;19921;-81
2022/04/14 01:11:40;;;;;;;;;;;10.20;99.90;;;;;;6112647;23;19922;-80
2022/04/14 01:14:08;;;;;;;;;;;11.20;99.90;;;;;;6120273;23;19921;-80
2022/04/14 01:16:36;;;;;;;;;;;11.20;99.90;;;;;;6117461;23;19921;-80
2022/04/14 01:19:03;;;;;;;;;;;11.20;99.90;;;;;;6110006;23;19921;-81
2022/04/14 01:21:33;;;;;;;;;;;11.20;99.90;;;;;;6114273;23;19927;-80
2022/04/14 01:24:02;;;;;;;;;;;11.20;99.90;;;;;;6111491;23;19940;-80
2022/04/14 01:26:30;;;;;;;;;;;11.20;99.90;;;;;;6111109;23;19932;-80
2022/04/14 01:28:59;;;;;;;;;;;11.20;99.90;;;;;;6112745;23;20345;-81
2022/04/14 01:31:28;;;;;;;;;;;11.20;99.90;;;;;;6134968;23;19921;-80
2022/04/14 01:33:56;;;;;;;;;;;11.20;99.90;;;;;;6121735;23;19927;-80
2022/04/14 01:36:24;;;;;;;;;;;11.20;99.90;;;;;;6110058;23;19925;-80
2022/04/14 01:38:52;;;;;;;;;;;11.10;99.90;;;;;;6120213;23;19930;-80
2022/04/14 01:41:19;;;;;;;;;;;11.20;99.90;;;;;;6145642;23;19921;-80
2022/04/14 01:43:47;;;;;;;;;;;11.10;99.90;;;;;;6125405;23;19921;-80
2022/04/14 01:46:16;;;;;;;;;;;11.10;99.90;;;;;;6123929;23;19931;-80
2022/04/14 01:48:44;;;;;;;;;;;11.10;99.90;;;;;;6138312;23;19925;-80
2022/04/14 01:51:12;;;;;;;;;;;11.10;99.90;;;;;;6137579;23;19921;-80
2022/04/14 01:53:42;;;;;;;;;;;11.00;99.90;;;;;;6113254;23;19926;-80
2022/04/14 01:56:10;;;;;;;;;;;11.00;99.90;;;;;;6137449;23;19925;-80
2022/04/14 01:58:37;;;;;;;;;;;11.00;99.90;;;;;;6116497;23;19921;-81
2022/04/14 02:01:06;;;;;;;;;;;11.00;99.90;;;;;;6147848;23;19944;-79
2022/04/14 02:03:34;;;;;;;;;;;11.00;99.90;;;;;;6125002;23;19932;-80
2022/04/14 02:06:01;;;;;;;;;;;10.90;99.90;;;;;;6118146;23;19921;-79
2022/04/14 02:08:29;;;;;;;;;;;12.60;99.90;;;;;;6125866;23;19921;-79
2022/04/14 02:10:57;;;;;;;;;;;10.80;99.90;;;;;;6125380;23;19921;-79
2022/04/14 02:13:25;;;;;;;;;;;10.80;99.90;;;;;;6117013;23;19925;-81
2022/04/14 02:15:52;;;;;;;;;;;10.80;99.90;;;;;;6123658;23;19921;-80
2022/04/14 02:18:24;;;;;;;;;;;10.90;99.90;;;;;;6115232;23;19921;-78
2022/04/14 02:20:52;;;;;;;;;;;10.90;99.90;;;;;;6148138;23;19921;-80
2022/04/14 02:23:19;;;;;;;;;;;10.70;99.90;;;;;;6149593;23;19925;-78
2022/04/14 02:25:47;;;;;;;;;;;10.60;99.90;;;;;;6119607;23;19927;-80
2022/04/14 02:28:19;;;;;;;;;;;10.80;99.90;;;;;;6119228;23;19931;-80
2022/04/14 02:30:49;;;;;;;;;;;10.60;99.90;;;;;;6120829;23;19921;-80
2022/04/14 02:33:17;;;;;;;;;;;10.60;99.90;;;;;;6129297;23;19925;-79
2022/04/14 02:35:45;;;;;;;;;;;10.80;99.90;;;;;;6154335;23;19921;-80
2022/04/14 02:38:13;;;;;;;;;;;10.50;99.90;;;;;;6129542;23;19927;-80
2022/04/14 02:40:41;;;;;;;;;;;10.50;99.90;;;;;;6156052;23;19921;-80
2022/04/14 02:43:08;;;;;;;;;;;10.50;99.90;;;;;;6120206;23;19931;-79
2022/04/14 02:45:36;;;;;;;;;;;10.50;99.90;;;;;;6146773;23;19925;-79
2022/04/14 02:48:04;;;;;;;;;;;10.40;99.90;;;;;;6119267;23;19927;-80
2022/04/14 02:50:32;;;;;;;;;;;10.40;99.90;;;;;;6154803;23;19921;-80
2022/04/14 02:53:03;;;;;;;;;;;10.50;99.90;;;;;;6140317;23;19925;-80
2022/04/14 02:55:31;;;;;;;;;;;10.40;99.90;;;;;;6119840;23;19925;-79
2022/04/14 02:57:59;;;;;;;;;;;10.50;99.90;;;;;;6140608;23;19928;-78
2022/04/14 03:00:26;;;;;;;;;;;10.50;99.90;;;;;;6140801;23;19925;-79
2022/04/14 03:02:54;;;;;;;;;;;10.30;99.90;;;;;;6093134;23;19921;-80
2022/04/14 03:05:22;;;;;;;;;;;11.20;99.90;;;;;;6152130;23;19921;-80
2022/04/14 03:07:49;;;;;;;;;;;10.40;99.90;;;;;;6141226;23;19924;-80
2022/04/14 03:10:17;;;;;;;;;;;10.40;99.90;;;;;;6141543;23;19921;-81
2022/04/14 03:12:46;;;;;;;;;;;10.40;99.90;;;;;;6141388;23;19944;-81
2022/04/14 03:15:14;;;;;;;;;;;10.40;99.90;;;;;;6116472;23;19927;-80
2022/04/14 03:17:44;;;;;;;;;;;10.40;99.90;;;;;;6113594;23;19921;-80
2022/04/14 03:20:12;;;;;;;;;;;10.40;99.90;;;;;;6150960;23;19925;-80
2022/04/14 03:22:40;;;;;;;;;;;10.40;99.90;;;;;;6152668;23;19931;-80
2022/04/14 03:25:08;;;;;;;;;;;10.40;99.90;;;;;;6117055;23;19931;-81
2022/04/14 03:27:37;;;;;;;;;;;10.40;99.90;;;;;;6119069;23;19924;-79
2022/04/14 03:30:05;;;;;;;;;;;10.30;99.90;;;;;;6117229;23;19936;-80
2022/04/14 03:32:39;;;;;;;;;;;10.40;99.90;;;;;;6126792;23;19921;-80
2022/04/14 03:35:08;;;;;;;;;;;10.40;99.90;;;;;;6119522;23;19925;-80
2022/04/14 03:37:35;;;;;;;;;;;10.30;99.90;;;;;;6143344;23;19920;-80
2022/04/14 03:40:04;;;;;;;;;;;10.30;99.90;;;;;;6144197;23;19920;-81
2022/04/14 03:42:32;;;;;;;;;;;10.40;99.90;;;;;;6127593;23;19935;-81
2022/04/14 03:44:59;;;;;;;;;;;10.30;99.90;;;;;;6067888;23;19925;-81
2022/04/14 03:47:28;;;;;;;;;;;10.30;99.90;;;;;;6143991;23;19924;-80
2022/04/14 03:49:56;;;;;;;;;;;10.30;99.90;;;;;;6152806;23;19921;-81
2022/04/14 03:52:26;;;;;;;;;;;10.30;99.90;;;;;;6141519;23;19925;-81
2022/04/14 03:54:56;;;;;;;;;;;10.30;99.90;;;;;;6143075;23;19925;-81
2022/04/14 03:57:27;;;;;;;;;;;10.30;99.90;;;;;;6143983;23;19927;-80
2022/04/14 03:59:55;;;;;;;;;;;10.30;99.90;;;;;;6116043;23;19931;-80
2022/04/14 04:02:23;;;;;;;;;;;10.40;99.90;;;;;;6116353;23;19960;-81
2022/04/14 04:04:52;;;;;;;;;;;10.20;99.90;;;;;;6152068;23;19927;-80
2022/04/14 04:07:19;;;;;;;;;;;10.20;99.90;;;;;;6151127;23;19927;-80
2022/04/14 04:09:47;;;;;;;;;;;10.20;99.90;;;;;;6116218;23;19931;-80
2022/04/14 04:12:17;;;;;;;;;;;10.10;99.90;;;;;;6143204;23;19924;-80
2022/04/14 04:14:45;;;;;;;;;;;10.10;99.90;;;;;;6150586;23;19923;-80
2022/04/14 04:17:14;;;;;;;;;;;9.60;99.90;;;;;;6142012;23;19921;-81
2022/04/14 04:19:43;;;;;;;;;;;10.00;99.90;;;;;;6141593;23;19927;-80
2022/04/14 04:22:11;;;;;;;;;;;10.00;99.90;;;;;;6141293;23;19931;-80
2022/04/14 04:24:40;;;;;;;;;;;9.90;99.90;;;;;;6117205;23;19925;-80
2022/04/14 04:27:09;;;;;;;;;;;10.00;99.90;;;;;;6143630;23;20768;-81
2022/04/14 04:29:37;;;;;;;;;;;9.90;99.90;;;;;;6144773;23;19935;-81
2022/04/14 04:32:05;;;;;;;;;;;9.90;99.90;;;;;;6146088;23;19932;-80
2022/04/14 04:34:33;;;;;;;;;;;10.10;99.90;;;;;;6143854;23;19921;-79
2022/04/14 04:37:02;;;;;;;;;;;9.80;99.90;;;;;;6118624;23;20328;-81
2022/04/14 04:39:30;;;;;;;;;;;9.90;99.90;;;;;;6117962;23;19927;-81
2022/04/14 04:41:58;;;;;;;;;;;9.80;99.90;;;;;;6127968;23;20074;-81
2022/04/14 04:44:26;;;;;;;;;;;9.80;99.90;;;;;;6141835;23;19925;-81
2022/04/14 04:46:58;;;;;;;;;;;9.70;99.90;;;;;;6117806;23;19920;-81
2022/04/14 04:49:27;;;;;;;;;;;9.70;99.90;;;;;;6119456;23;19921;-82
2022/04/14 04:51:55;;;;;;;;;;;9.70;99.90;;;;;;6094331;23;19924;-81
2022/04/14 04:54:23;;;;;;;;;;;10.70;99.90;;;;;;6147011;23;19928;-81
2022/04/14 04:56:51;;;;;;;;;;;9.60;99.90;;;;;;6093541;23;19931;-80
2022/04/14 04:59:19;;;;;;;;;;;9.60;99.90;;;;;;6128250;23;19925;-81
2022/04/14 05:01:49;;;;;;;;;;;9.60;99.90;;;;;;6117301;23;19921;-81
2022/04/14 05:04:19;;;;;;;;;;;9.50;99.90;;;;;;6129669;23;19921;-81
2022/04/14 05:06:47;;;;;;;;;;;9.80;99.90;;;;;;6129468;23;19920;-79
2022/04/14 05:09:16;;;;;;;;;;;9.90;99.90;;;;;;6156075;23;19931;-79
2022/04/14 05:11:45;;;;;;;;;;;11.00;99.90;;;;;;6120417;23;19925;-79
2022/04/14 05:14:13;;;;;;;;;;;9.50;99.90;;;;;;6070411;23;19916;-80
2022/04/14 05:16:42;;;;;;;;;;;9.40;99.90;;;;;;6070029;23;19925;-80
2022/04/14 05:19:10;;;;;;;;;;;9.40;99.90;;;;;;6117384;23;19921;-80
2022/04/14 05:21:39;;;;;;;;;;;9.50;99.90;;;;;;6126638;23;20355;-80
2022/04/14 05:24:07;;;;;;;;;;;9.30;99.90;;;;;;6115415;23;19927;-80
2022/04/14 05:26:35;;;;;;;;;;;9.40;99.90;;;;;;6151251;23;20130;-80
2022/04/14 05:29:03;;;;;;;;;;;9.30;99.90;;;;;;6126499;23;19920;-80
2022/04/14 05:31:31;;;;;;;;;;;9.20;99.90;;;;;;6141498;23;19921;-80
2022/04/14 05:34:00;;;;;;;;;;;9.20;99.90;;;;;;6116573;23;19929;-79
2022/04/14 05:36:29;;;;;;;;;;;9.20;99.90;;;;;;6116940;23;19925;-80
2022/04/14 05:38:59;;;;;;;;;;;9.20;99.90;;;;;;6153336;23;19920;-80
2022/04/14 05:41:29;;;;;;;;;;;9.20;99.90;;;;;;6128064;23;19931;-80
2022/04/14 05:43:58;;;;;;;;;;;9.20;99.90;;;;;;6152909;23;19921;-80
2022/04/14 05:46:26;;;;;;;;;;;9.20;99.90;;;;;;6093603;23;19958;-80
2022/04/14 05:48:55;;;;;;;;;;;9.20;99.90;;;;;;6127920;23;20336;-80
2022/04/14 05:51:24;;;;;;;;;;;10.90;99.90;;;;;;6093336;23;19917;-80
2022/04/14 05:53:53;;;;;;;;;;;9.30;99.90;;;;;;6117637;23;19927;-81
2022/04/14 05:56:23;;;;;;;;;;;9.30;99.90;;;;;;6141684;23;19961;-81
2022/04/14 05:58:52;;;;;;;;;;;9.40;99.90;;;;;;6154014;23;19920;-81
2022/04/14 06:01:21;;;;;;;;;;;9.90;99.90;;;;;;6142503;23;19935;-80
2022/04/14 06:03:49;;;;;;;;;;;9.50;99.90;;;;;;6145234;23;19927;-81
2022/04/14 06:06:18;;;;;;;;;;;9.60;99.90;;;;;;6140871;23;19923;-80
2022/04/14 06:08:46;;;;;;;;;;;9.60;99.90;;;;;;6144465;23;19921;-81
2022/04/14 06:11:17;;;;;;;;;;;9.70;99.90;;;;;;6144118;23;19921;-81
2022/04/14 06:13:45;;;;;;;;;;;9.70;99.90;;;;;;6095825;23;19927;-82
2022/04/14 06:16:14;;;;;;;;;;;9.80;99.90;;;;;;6154116;23;19921;-81
2022/04/14 06:18:48;;;;;;;;;;;9.80;99.90;;;;;;6144933;23;19921;-80
2022/04/14 06:21:18;;;;;;;;;;;8.70;99.90;;;;;;6142705;23;19952;-81
2022/04/14 06:23:46;;;;;;;;;;;10.20;99.90;;;;;;6150035;23;19925;-81
2022/04/14 06:26:14;;;;;;;;;;;10.20;99.90;;;;;;6153974;23;19928;-81
2022/04/14 06:28:46;;;;;;;;;;;10.30;99.90;;;;;;6153895;23;20278;-80
2022/04/14 06:31:15;;;;;;;;;;;10.40;99.90;;;;;;6153792;23;19929;-81
2022/04/14 06:33:44;;;;;;;;;;;10.50;99.90;;;;;;6120571;23;19921;-80
2022/04/14 06:36:12;;;;;;;;;;;10.60;99.90;;;;;;6143732;23;19927;-81
2022/04/14 06:38:42;;;;;;;;;;;8.90;99.90;;;;;;6146050;23;19929;-80
2022/04/14 06:41:12;;;;;;;;;;;10.90;99.90;;;;;;6118872;23;19931;-82
2022/04/14 06:43:39;;;;;;;;;;;10.90;99.90;;;;;;6118586;23;19921;-81
2022/04/14 06:46:07;;;;;;;;;;;11.00;99.90;;;;;;6153998;23;20498;-81
2022/04/14 06:48:35;;;;;;;;;;;11.20;99.90;;;;;;6118665;23;19925;-81
2022/04/14 06:51:05;;;;;;;;;;;12.50;99.90;;;;;;6151049;23;19921;-80
2022/04/14 06:53:33;;;;;;;;;;;11.20;99.90;;;;;;6154135;23;19921;-80
2022/04/14 06:56:02;;;;;;;;;;;11.50;99.90;;;;;;6152461;23;20239;-80
2022/04/14 06:58:31;;;;;;;;;;;11.30;99.90;;;;;;6143033;23;19925;-81
2022/04/14 07:00:59;;;;;;;;;;;11.40;99.90;;;;;;6118618;23;19931;-81
2022/04/14 07:03:27;;;;;;;;;;;11.60;99.90;;;;;;6119286;23;19935;-82
2022/04/14 07:05:56;;;;;;;;;;;11.60;99.90;;;;;;6095832;23;19921;-82
2022/04/14 07:08:24;;;;;;;;;;;11.60;99.90;;;;;;6119195;23;19921;-81
2022/04/14 07:10:53;;;;;;;;;;;11.70;99.90;;;;;;6128295;23;19927;-81
2022/04/14 07:13:23;;;;;;;;;;;11.80;99.90;;;;;;6145906;23;19921;-81
2022/04/14 07:15:51;;;;;;;;;;;11.80;99.90;;;;;;6156353;23;19925;-81
2022/04/14 07:18:23;;;;;;;;;;;12.80;99.90;;;;;;6143233;23;19929;-82
2022/04/14 07:20:53;;;;;;;;;;;11.90;99.90;;;;;;6118484;23;19921;-80
2022/04/14 07:23:20;;;;;;;;;;;12.00;99.90;;;;;;6119578;23;19929;-80
2022/04/14 07:25:49;;;;;;;;;;;12.60;99.90;;;;;;6138417;23;19926;-81
2022/04/14 07:28:20;;;;;;;;;;;12.10;99.90;;;;;;6139543;23;19921;-81
2022/04/14 07:30:55;;;;;;;;;;;12.20;99.90;;;;;;6138010;23;19917;-81
2022/04/14 07:33:24;;;;;;;;;;;12.20;99.90;;;;;;6148590;23;19929;-81
2022/04/14 07:35:52;;;;;;;;;;;12.30;99.90;;;;;;6112840;23;19922;-81
2022/04/14 07:38:21;;;;;;;;;;;12.70;99.90;;;;;;6147097;23;19974;-81
2022/04/14 07:40:49;;;;;;;;;;;12.50;99.90;;;;;;6146924;23;19921;-81
2022/04/14 07:43:17;;;;;;;;;;;12.50;99.90;;;;;;6136061;23;19927;-79
2022/04/14 07:45:45;;;;;;;;;;;12.60;99.90;;;;;;6124202;23;19925;-80
2022/04/14 07:48:13;;;;;;;;;;;12.70;99.90;;;;;;6146793;23;19927;-80
2022/04/14 07:50:42;;;;;;;;;;;12.80;99.90;;;;;;6113652;23;20576;-81
2022/04/14 07:53:10;;;;;;;;;;;12.80;99.90;;;;;;6113315;23;19928;-80
2022/04/14 07:55:39;;;;;;;;;;;12.90;99.90;;;;;;6111739;23;20686;-80
2022/04/14 07:58:07;;;;;;;;;;;13.00;99.90;;;;;;6112430;23;19925;-80
2022/04/14 08:00:37;;;;;;;;;;;13.00;99.90;;;;;;6140225;23;20460;-80
2022/04/14 08:03:05;;;;;;;;;;;13.10;99.90;;;;;;6111872;23;19922;-80
2022/04/14 08:05:36;;;;;;;;;;;13.20;99.90;;;;;;6123663;23;19921;-79
2022/04/14 08:08:06;;;;;;;;;;;13.30;99.90;;;;;;6114460;23;19921;-81
2022/04/14 08:10:34;;;;;;;;;;;13.30;99.90;;;;;;6124171;23;19921;-81
2022/04/14 08:13:05;;;;;;;;;;;13.40;99.90;;;;;;6114356;23;20239;-81
2022/04/14 08:15:35;;;;;;;;;;;13.40;99.90;;;;;;6138098;23;19921;-80
2022/04/14 08:18:08;;;;;;;;;;;13.50;99.90;;;;;;6113565;23;19922;-80
2022/04/14 08:20:41;;;;;;;;;;;13.70;99.90;;;;;;6113217;23;19921;-81
2022/04/14 08:23:14;;;;;;;;;;;13.70;99.90;;;;;;6112999;23;19921;-81
2022/04/14 08:25:44;;;;;;;;;;;13.70;99.90;;;;;;6118290;23;19927;-81
2022/04/14 08:28:33;;;;;;;;;;;13.80;99.90;;;;;;6145403;23;19908;-80
2022/04/14 08:31:02;;;;;;;;;;;13.90;99.90;;;;;;6144072;23;19931;-81
2022/04/14 08:33:31;;;;;;;;;;;14.00;99.90;;;;;;6143288;23;19924;-81
2022/04/14 08:35:59;;;;;;;;;;;14.10;99.90;;;;;;6144372;23;19921;-81
2022/04/14 08:38:28;;;;;;;;;;;14.10;99.90;;;;;;6144964;23;19925;-81
2022/04/14 08:41:03;;;;;;;;;;;14.20;99.90;;;;;;6143261;23;19940;-81
2022/04/14 08:43:54;;;;;;;;;;;14.30;99.90;;;;;;6128419;23;19927;-80
2022/04/14 08:46:23;;;;;;;;;;;14.40;99.90;;;;;;6146253;23;20218;-81
2022/04/14 08:48:57;;;;;;;;;;;14.40;99.90;;;;;;6094600;23;20625;-81
2022/04/14 08:51:27;;;;;;;;;;;14.40;99.90;;;;;;6142351;23;19925;-80
2022/04/14 08:53:56;;;;;;;;;;;14.80;99.90;;;;;;6092136;23;19925;-80
2022/04/14 08:56:24;;;;;;;;;;;14.70;99.90;;;;;;6150558;23;19921;-80
2022/04/14 08:58:55;;;;;;;;;;;14.80;99.90;;;;;;6153296;23;19925;-81
2022/04/14 09:01:26;;;;;;;;;;;14.90;99.90;;;;;;6145232;23;19921;-80
2022/04/14 09:03:56;;;;;;;;;;;14.90;99.90;;;;;;6146196;23;19931;-81
2022/04/14 09:06:28;;;;;;;;;;;15.00;99.90;;;;;;6152212;23;19921;-80
2022/04/14 09:08:58;;;;;;;;;;;15.40;99.90;;;;;;6118782;23;19931;-80
2022/04/14 09:11:27;;;;;;;;;;;15.20;99.90;;;;;;6121734;23;19935;-81
2022/04/14 09:13:59;;;;;;;;;;;15.20;99.90;;;;;;6145419;23;19920;-79
2022/04/14 09:16:30;;;;;;;;;;;15.20;99.90;;;;;;6143782;23;19939;-81
2022/04/14 09:19:00;;;;;;;;;;;16.20;99.90;;;;;;6117929;23;19927;-81
2022/04/14 09:21:30;;;;;;;;;;;15.40;99.90;;;;;;6121076;23;19935;-81
2022/04/14 09:23:59;;;;;;;;;;;15.50;99.90;;;;;;6121994;23;19927;-81
2022/04/14 09:26:27;;;;;;;;;;;15.50;99.90;;;;;;6118006;23;19925;-81
2022/04/14 09:29:03;;;;;;;;;;;15.60;99.90;;;;;;6151825;23;19921;-81
2022/04/14 09:31:49;;;;;;;;;;;15.70;99.90;;;;;;6117842;23;19925;-82
2022/04/14 09:34:37;;;;;;;;;;;15.80;99.90;;;;;;6150766;23;19925;-82
2022/04/14 09:37:07;;;;;;;;;;;15.80;99.90;;;;;;6139692;23;19921;-81
2022/04/14 09:39:55;;;;;;;;;;;16.00;99.90;;;;;;6114627;23;19928;-80
2022/04/14 09:42:24;;;;;;;;;;;16.00;99.90;;;;;;6141151;23;19925;-80
2022/04/14 09:44:54;;;;;;;;;;;16.20;99.90;;;;;;6118804;23;19947;-81
2022/04/14 09:47:37;;;;;;;;;;;16.30;99.90;;;;;;6117021;23;19928;-79
2022/04/14 09:50:07;;;;;;;;;;;16.40;99.90;;;;;;6146069;23;19921;-81
2022/04/14 09:52:54;;;;;;;;;;;16.40;99.90;;;;;;6116591;23;19931;-81
2022/04/14 09:55:22;;;;;;;;;;;16.20;99.90;;;;;;6115575;23;19929;-80
2022/04/14 09:58:05;;;;;;;;;;;16.70;99.90;;;;;;6115444;23;19921;-81
2022/04/14 10:01:00;;;;;;;;;;;16.90;99.90;;;;;;6128094;23;19931;-81
2022/04/14 10:03:29;;;;;;;;;;;16.80;99.90;;;;;;6141908;23;19925;-81
2022/04/14 10:05:59;;;;;;;;;;;17.00;99.90;;;;;;6118201;23;19921;-80
2022/04/14 10:08:29;;;;;;;;;;;17.00;99.90;;;;;;6119007;23;19921;-82
2022/04/14 10:11:07;;;;;;;;;;;17.00;99.90;;;;;;6119300;23;19924;-82
2022/04/14 10:13:36;;;;;;;;;;;17.10;99.90;;;;;;6152655;23;19920;-80
2022/04/14 10:16:07;;;;;;;;;;;17.20;99.90;;;;;;6153612;23;19921;-81
2022/04/14 10:18:36;;;;;;;;;;;17.20;99.90;;;;;;6093702;23;19921;-81
2022/04/14 10:21:05;;;;;;;;;;;17.20;99.90;;;;;;6128512;23;19921;-80
2022/04/14 10:23:35;;;;;;;;;;;17.30;99.90;;;;;;6128580;23;19921;-81
2022/04/14 10:26:03;;;;;;;;;;;18.20;99.90;;;;;;6113781;23;19928;-80
2022/04/14 10:28:35;;;;;;;;;;;17.50;99.90;;;;;;6089572;23;19931;-81
2022/04/14 10:31:02;;;;;;;;;;;17.60;99.90;;;;;;6122657;23;20251;-81
2022/04/14 10:33:32;;;;;;;;;;;17.70;99.90;;;;;;6087936;23;19941;-81
2022/04/14 10:36:01;;;;;;;;;;;17.80;99.90;;;;;;6091078;23;19928;-81
2022/04/14 10:38:30;;;;;;;;;;;17.80;99.90;;;;;;6122969;23;19921;-81
2022/04/14 10:40:58;;;;;;;;;;;17.90;99.90;;;;;;6122606;23;19921;-80
2022/04/14 10:43:26;;;;;;;;;;;18.00;99.90;;;;;;6115510;23;19921;-80
2022/04/14 10:45:55;;;;;;;;;;;18.10;99.90;;;;;;6116184;23;19927;-79
2022/04/14 10:48:27;;;;;;;;;;;18.20;99.90;;;;;;6075191;23;20427;-81
2022/04/14 10:51:13;;;;;;;;;;;18.30;99.90;;;;;;6097767;23;19921;-81
2022/04/14 10:53:58;;;;;;;;;;;18.20;99.90;;;;;;6095961;23;20379;-80
2022/04/14 10:56:40;;;;;;;;;;;18.20;99.90;;;;;;6123039;23;19925;-80
2022/04/14 10:59:14;;;;;;;;;;;17.60;99.90;;;;;;6094935;23;19926;-81
2022/04/14 11:01:46;;;;;;;;;;;17.10;99.90;;;;;;6115264;23;19921;-81
2022/04/14 11:04:34;;;;;;;;;;;18.40;99.90;;;;;;6064811;23;19936;-81
2022/04/14 11:07:12;;;;;;;;;;;18.40;99.60;;;;;;6116633;23;19935;-81
2022/04/14 11:09:51;;;;;;;;;;;18.50;99.70;;;;;;6088757;23;19925;-80
2022/04/14 11:12:27;;;;;;;;;;;18.40;99.40;;;;;;6122844;23;19922;-81
2022/04/14 11:14:59;;;;;;;;;;;18.50;99.60;;;;;;6115023;23;20320;-81
2022/04/14 11:17:48;;;;;;;;;;;17.20;99.40;;;;;;6042370;23;19921;-81
2022/04/14 11:20:18;;;;;;;;;;;18.70;99.30;;;;;;6125176;23;19944;-81
2022/04/14 11:23:05;;;;;;;;;;;18.90;99.30;;;;;;6115575;23;19974;-80
2022/04/14 11:25:38;;;;;;;;;;;19.00;99.10;;;;;;6108186;23;19925;-81
2022/04/14 11:28:21;;;;;;;;;;;19.10;98.80;;;;;;6109030;23;19922;-81
2022/04/14 11:30:59;;;;;;;;;;;19.70;98.30;;;;;;6149778;23;19928;-80
2022/04/14 11:33:29;;;;;;;;;;;19.20;98.20;;;;;;6114560;23;20253;-81
2022/04/14 11:36:14;;;;;;;;;;;19.10;97.70;;;;;;6147012;23;19935;-81
2022/04/14 11:38:58;;;;;;;;;;;19.20;97.80;;;;;;6141753;23;19921;-81
2022/04/14 11:41:34;;;;;;;;;;;19.20;97.60;;;;;;6112377;23;20276;-82
2022/04/14 11:44:09;;;;;;;;;;;19.30;97.40;;;;;;6122013;23;19925;-81
2022/04/14 11:46:37;;;;;;;;;;;19.40;97.50;;;;;;6112134;23;19928;-81
2022/04/14 11:49:06;;;;;;;;;;;19.50;97.50;;;;;;6122759;23;19925;-81
2022/04/14 11:51:39;;;;;;;;;;;19.60;97.10;;;;;;6118755;23;19927;-80
2022/04/14 11:54:07;;;;;;;;;;;19.70;96.90;;;;;;6121368;23;19926;-80
2022/04/14 11:56:56;;;;;;;;;;;20.50;97.30;;;;;;6135089;23;19921;-81
2022/04/14 11:59:34;;;;;;;;;;;19.90;96.40;;;;;;6122545;23;19922;-81
2022/04/14 12:02:07;;;;;;;;;;;19.90;96.40;;;;;;6110935;23;19928;-80
2022/04/14 12:04:37;;;;;;;;;;;20.00;96.50;;;;;;6111118;23;19925;-81
2022/04/14 12:07:05;;;;;;;;;;;20.00;96.70;;;;;;6144796;23;19927;-81
2022/04/14 12:09:33;;;;;;;;;;;20.20;96.30;;;;;;6135224;23;20360;-81
2022/04/14 12:12:07;;;;;;;;;;;20.30;96.30;;;;;;6118541;23;19978;-82
2022/04/14 12:14:39;;;;;;;;;;;20.20;95.60;;;;;;6122442;23;19921;-81
2022/04/14 12:17:07;;;;;;;;;;;19.90;94.80;;;;;;6111403;23;19921;-80
2022/04/14 12:19:42;;;;;;;;;;;20.70;95.40;;;;;;6098010;23;19921;-80
2022/04/14 12:22:10;;;;;;;;;;;20.10;94.90;;;;;;6137640;23;19925;-80
2022/04/14 12:24:38;;;;;;;;;;;20.10;95.00;;;;;;6116240;23;19921;-81
2022/04/14 12:27:06;;;;;;;;;;;20.10;95.10;;;;;;6087220;23;19931;-81
2022/04/14 12:29:41;;;;;;;;;;;20.10;95.10;;;;;;6137144;23;19936;-79
2022/04/14 12:32:10;;;;;;;;;;;20.10;94.80;;;;;;6113515;23;19947;-81
2022/04/14 12:34:42;;;;;;;;;;;20.10;94.80;;;;;;6137807;23;20152;-80
2022/04/14 12:37:13;;;;;;;;;;;19.30;94.00;;;;;;6134501;23;19921;-81
2022/04/14 12:40:01;;;;;;;;;;;20.10;94.70;;;;;;6121478;23;19970;-79
2022/04/14 12:42:32;;;;;;;;;;;20.00;94.70;;;;;;6135886;23;19947;-82
2022/04/14 12:45:05;;;;;;;;;;;19.90;94.40;;;;;;6140802;23;19905;-80
2022/04/14 12:47:34;;;;;;;;;;;19.80;94.30;;;;;;6136089;23;19925;-81
2022/04/14 12:50:03;;;;;;;;;;;19.80;94.40;;;;;;6112067;23;19927;-81
2022/04/14 12:52:31;;;;;;;;;;;19.80;94.50;;;;;;6112170;23;19925;-80
2022/04/14 12:55:00;;;;;;;;;;;19.80;94.40;;;;;;6138065;23;20343;-81
2022/04/14 12:57:30;;;;;;;;;;;19.90;94.10;;;;;;6111016;23;19921;-81
2022/04/14 13:00:04;;;;;;;;;;;19.90;94.10;;;;;;6109422;23;19925;-81
2022/04/14 13:02:32;;;;;;;;;;;19.90;94.00;;;;;;6134106;23;19921;-81
2022/04/14 13:05:14;;;;;;;;;;;20.00;94.10;;;;;;6110204;23;19922;-81
2022/04/14 13:07:53;;;;;;;;;;;20.10;93.40;;;;;;6120058;23;19928;-81
2022/04/14 13:10:24;;;;;;;;;;;20.10;94.20;;;;;;6110109;23;19921;-81
2022/04/14 13:12:52;;;;;;;;;;;20.40;93.70;;;;;;6122779;23;19927;-80
2022/04/14 13:15:23;;;;;;;;;;;20.20;93.30;;;;;;6113377;23;19932;-81
2022/04/14 13:17:53;;;;;;;;;;;20.20;93.50;;;;;;6123401;23;19935;-82
2022/04/14 13:20:23;;;;;;;;;;;20.40;93.80;;;;;;6122588;23;19926;-81
2022/04/14 13:22:51;;;;;;;;;;;20.40;93.40;;;;;;6110840;23;19921;-81
2022/04/14 13:25:20;;;;;;;;;;;20.60;93.40;;;;;;6140244;23;19925;-80
2022/04/14 13:27:51;;;;;;;;;;;20.70;93.40;;;;;;6151976;23;19925;-82
2022/04/14 13:30:21;;;;;;;;;;;20.70;93.40;;;;;;6153215;23;19931;-81
2022/04/14 13:32:49;;;;;;;;;;;20.80;93.10;;;;;;6115922;23;20340;-82
2022/04/14 13:35:17;;;;;;;;;;;20.80;92.40;;;;;;6092336;23;19927;-80
2022/04/14 13:37:45;;;;;;;;;;;20.70;92.70;;;;;;6115604;23;19925;-81
2022/04/14 13:40:13;;;;;;;;;;;20.70;93.00;;;;;;6125163;23;19925;-82
2022/04/14 13:42:42;;;;;;;;;;;20.60;92.50;;;;;;6139333;23;19921;-80
2022/04/14 13:45:12;;;;;;;;;;;20.50;92.30;;;;;;6117963;23;19925;-80
2022/04/14 13:47:41;;;;;;;;;;;20.40;92.80;;;;;;6142927;23;19927;-81
2022/04/14 13:50:09;;;;;;;;;;;20.30;92.20;;;;;;6117250;23;19925;-81
2022/04/14 13:52:38;;;;;;;;;;;20.30;92.50;;;;;;6115151;23;20356;-80
2022/04/14 13:55:06;;;;;;;;;;;20.10;92.40;;;;;;6151740;23;19928;-81
2022/04/14 13:57:34;;;;;;;;;;;20.20;92.40;;;;;;6117088;23;19932;-81
2022/04/14 14:00:04;;;;;;;;;;;20.00;92.40;;;;;;6120554;23;19924;-81
2022/04/14 14:02:31;;;;;;;;;;;20.30;92.60;;;;;;6143369;23;19924;-79
2022/04/14 14:04:59;;;;;;;;;;;20.40;92.90;;;;;;6093680;23;19924;-80
2022/04/14 14:07:28;;;;;;;;;;;20.50;92.20;;;;;;6145193;23;19927;-81
2022/04/14 14:09:56;;;;;;;;;;;20.80;92.40;;;;;;6125728;23;19925;-82
2022/04/14 14:12:23;;;;;;;;;;;20.70;92.70;;;;;;6139994;23;19939;-81
2022/04/14 14:14:51;;;;;;;;;;;20.70;92.40;;;;;;6125600;23;19925;-80
2022/04/14 14:17:19;;;;;;;;;;;20.60;91.90;;;;;;6151780;23;19920;-81
2022/04/14 14:19:47;;;;;;;;;;;20.60;92.00;;;;;;6150689;23;19931;-80
2022/04/14 14:22:15;;;;;;;;;;;20.60;92.10;;;;;;6124805;23;19921;-81
2022/04/14 14:24:42;;;;;;;;;;;20.70;92.00;;;;;;6143367;23;19920;-80
2022/04/14 14:27:10;;;;;;;;;;;20.50;91.70;;;;;;6151158;23;19927;-81
2022/04/14 14:29:38;;;;;;;;;;;20.40;92.20;;;;;;6114822;23;19921;-81
2022/04/14 14:32:07;;;;;;;;;;;20.40;92.00;;;;;;6139228;23;19947;-81
2022/04/14 14:34:36;;;;;;;;;;;20.50;92.00;;;;;;6151079;23;19931;-81
2022/04/14 14:37:07;;;;;;;;;;;20.40;91.70;;;;;;6114362;23;19946;-81
2022/04/14 14:39:35;;;;;;;;;;;20.40;91.80;;;;;;6140752;23;19921;-81